Time;durP1;ratioP1;P1;durP2;ratioP2;P2;SDS_P1;SDS_P2;PMS_P1;PMS_P2;Temp;Humidity;BMP_temperature;BMP_pressure;BME280_temperature;BME280_humidity;BME280_pressure;Samples;Min_cycle;Max_cycle;Signal;HPM_P1;HPM_P2
2022/09/29 00:00:11;;;;;;;26.37;15.17;;;7.30;1.00;;;;;;5086499;28;20244;-45
2022/09/29 00:02:37;;;;;;;24.77;14.77;;;7.20;1.00;;;;;;5090550;28;20411;-45
2022/09/29 00:05:04;;;;;;;22.40;14.67;;;7.20;1.00;;;;;;5089447;28;20771;-45
2022/09/29 00:07:31;;;;;;;25.70;14.30;;;7.10;1.00;;;;;;5090778;28;20431;-45
2022/09/29 00:09:57;;;;;;;21.33;13.90;;;7.00;1.00;;;;;;5090201;28;20525;-45
2022/09/29 00:12:22;;;;;;;22.70;14.00;;;6.90;1.00;;;;;;5088065;28;20506;-45
2022/09/29 00:14:48;;;;;;;21.70;13.90;;;6.90;1.00;;;;;;5090318;28;20510;-45
2022/09/29 00:17:14;;;;;;;25.20;13.97;;;6.90;1.00;;;;;;5091018;28;20180;-44
2022/09/29 00:19:39;;;;;;;22.50;14.50;;;6.80;1.00;;;;;;5076354;28;20221;-45
2022/09/29 00:22:05;;;;;;;23.60;14.13;;;6.90;9.60;;;;;;5089068;28;20197;-45
2022/09/29 00:24:30;;;;;;;25.80;14.47;;;6.80;57.80;;;;;;5091431;28;20204;-46
2022/09/29 00:26:56;;;;;;;24.50;14.30;;;6.80;96.80;;;;;;5086796;28;20189;-45
2022/09/29 00:29:22;;;;;;;26.90;15.60;;;6.80;99.90;;;;;;5085945;28;20193;-45
2022/09/29 00:31:48;;;;;;;28.90;14.20;;;6.80;99.90;;;;;;5073993;28;20276;-45
2022/09/29 00:34:13;;;;;;;23.20;14.33;;;6.90;99.90;;;;;;5073373;28;20426;-45
2022/09/29 00:36:40;;;;;;;29.90;15.87;;;6.90;99.90;;;;;;5074253;28;20304;-45
2022/09/29 00:39:06;;;;;;;23.97;15.30;;;6.90;99.90;;;;;;5072121;28;20252;-46
2022/09/29 00:41:34;;;;;;;32.27;16.53;;;7.00;99.90;;;;;;5078770;28;20481;-45
2022/09/29 00:44:04;;;;;;;31.23;16.53;;;6.90;99.90;;;;;;5077707;28;20473;-45
2022/09/29 00:46:33;;;;;;;30.53;15.40;;;6.90;99.90;;;;;;5077668;28;20424;-45
2022/09/29 00:49:04;;;;;;;25.43;15.17;;;6.90;99.90;;;;;;5077032;28;20442;-45
2022/09/29 00:51:33;;;;;;;27.47;15.67;;;6.90;99.90;;;;;;5075387;28;20485;-45
2022/09/29 00:54:00;;;;;;;22.70;14.63;;;6.90;99.90;;;;;;5078021;28;20435;-45
2022/09/29 00:56:26;;;;;;;26.47;16.40;;;6.90;99.90;;;;;;5077270;28;21000;-45
2022/09/29 00:58:54;;;;;;;28.87;15.57;;;6.80;99.90;;;;;;5077751;28;20997;-45
2022/09/29 01:01:21;;;;;;;33.63;16.60;;;6.80;99.90;;;;;;5082971;28;20529;-44
2022/09/29 01:03:50;;;;;;;28.07;16.43;;;6.80;99.90;;;;;;5081177;28;20434;-45
2022/09/29 01:06:23;;;;;;;29.03;16.00;;;7.00;99.90;;;;;;5076162;28;20900;-45
2022/09/29 01:09:00;;;;;;;28.33;14.83;;;7.00;99.90;;;;;;5075653;28;20561;-45
2022/09/29 01:11:26;;;;;;;38.57;15.83;;;7.00;99.90;;;;;;5078630;28;20434;-45
2022/09/29 01:13:54;;;;;;;28.17;15.80;;;7.00;99.90;;;;;;5093570;28;20541;-44
2022/09/29 01:16:20;;;;;;;25.30;15.53;;;7.00;99.90;;;;;;5096942;28;20193;-45
2022/09/29 01:18:46;;;;;;;25.03;15.10;;;7.00;99.90;;;;;;5076301;28;20543;-45
2022/09/29 01:21:33;;;;;;;29.30;15.40;;;6.90;99.90;;;;;;5083073;28;22007;-53
2022/09/29 01:24:31;;;;;;;25.50;14.50;;;6.90;99.90;;;;;;5077603;28;20790;-45
2022/09/29 01:27:08;;;;;;;27.00;16.50;;;6.90;99.90;;;;;;5076291;28;20484;-45
2022/09/29 01:30:00;;;;;;;32.77;16.13;;;6.90;99.90;;;;;;5087620;28;20438;-45
2022/09/29 01:32:52;;;;;;;24.73;14.67;;;6.90;99.90;;;;;;5094214;28;20419;-46
2022/09/29 01:35:36;;;;;;;27.30;14.83;;;6.80;99.90;;;;;;5093303;28;20502;-52
2022/09/29 01:38:33;;;;;;;28.30;17.90;;;6.80;99.90;;;;;;5092372;28;20532;-45
2022/09/29 01:41:04;;;;;;;31.40;16.00;;;6.80;99.90;;;;;;5092884;28;20408;-45
2022/09/29 01:43:39;;;;;;;28.60;15.20;;;6.80;99.90;;;;;;5092001;28;20438;-45
2022/09/29 01:46:21;;;;;;;25.10;14.63;;;6.70;99.90;;;;;;5092679;28;21111;-45
2022/09/29 01:48:50;;;;;;;30.50;14.33;;;6.70;99.90;;;;;;5089323;28;20935;-45
2022/09/29 01:51:38;;;;;;;27.13;15.23;;;6.60;99.90;;;;;;5079844;28;20996;-45
2022/09/29 01:54:11;;;;;;;24.93;14.30;;;6.60;99.90;;;;;;5050291;28;20932;-45
2022/09/29 01:56:42;;;;;;;25.17;14.67;;;6.60;99.90;;;;;;5090314;28;20447;-45
2022/09/29 01:59:17;;;;;;;27.50;14.57;;;6.60;99.90;;;;;;5091575;28;20470;-45
2022/09/29 02:01:45;;;;;;;27.23;15.67;;;6.60;99.90;;;;;;5091494;28;20517;-45
2022/09/29 02:04:26;;;;;;;23.87;14.50;;;6.60;99.90;;;;;;5091913;28;20435;-45
2022/09/29 02:06:59;;;;;;;24.17;15.20;;;6.60;99.90;;;;;;5091807;28;20449;-45
2022/09/29 02:09:35;;;;;;;24.03;14.10;;;6.60;99.90;;;;;;5091227;28;20454;-45
2022/09/29 02:12:03;;;;;;;27.20;14.87;;;6.60;99.90;;;;;;5091425;28;20532;-45
2022/09/29 02:14:35;;;;;;;26.77;14.70;;;6.60;99.90;;;;;;5092433;28;20427;-45
2022/09/29 02:17:04;;;;;;;26.07;15.87;;;6.60;99.90;;;;;;5090667;28;20443;-45
2022/09/29 02:19:39;;;;;;;26.27;15.30;;;6.60;99.90;;;;;;5089838;28;20474;-45
2022/09/29 02:22:05;;;;;;;25.10;14.80;;;6.50;99.90;;;;;;5085646;28;20446;-46
2022/09/29 02:24:31;;;;;;;23.80;14.60;;;6.50;99.90;;;;;;5091041;28;20797;-46
2022/09/29 02:26:57;;;;;;;32.63;15.77;;;6.60;99.90;;;;;;5091219;28;20608;-46
2022/09/29 02:29:23;;;;;;;27.73;15.33;;;6.50;99.90;;;;;;5091481;28;20242;-46
2022/09/29 02:31:49;;;;;;;26.03;14.40;;;6.50;99.90;;;;;;5090309;28;20479;-46
2022/09/29 02:34:17;;;;;;;24.93;14.87;;;6.50;99.90;;;;;;5091008;28;20197;-46
2022/09/29 02:36:46;;;;;;;26.57;15.80;;;6.50;99.90;;;;;;5090675;28;20446;-46
2022/09/29 02:39:29;;;;;;;26.30;15.60;;;6.50;99.90;;;;;;5089852;28;20463;-46
2022/09/29 02:42:18;;;;;;;28.40;14.90;;;6.50;99.90;;;;;;5089272;28;20439;-46
2022/09/29 02:45:09;;;;;;;23.23;14.70;;;6.50;99.90;;;;;;5076922;28;20484;-45
2022/09/29 02:47:45;;;;;;;29.97;15.23;;;6.60;99.90;;;;;;5090693;28;20440;-45
2022/09/29 02:50:29;;;;;;;29.33;15.43;;;6.60;99.90;;;;;;5090468;28;20431;-45
2022/09/29 02:53:19;;;;;;;30.60;16.70;;;6.60;99.90;;;;;;5090309;28;20473;-46
2022/09/29 02:56:02;;;;;;;30.53;15.90;;;6.60;99.90;;;;;;5096491;28;20440;-45
2022/09/29 02:58:39;;;;;;;27.57;16.23;;;6.70;99.90;;;;;;5090746;28;20469;-45
2022/09/29 03:01:06;;;;;;;27.57;15.43;;;6.60;99.90;;;;;;5090439;28;20533;-45
2022/09/29 03:03:32;;;;;;;29.07;16.57;;;6.60;99.90;;;;;;5090372;28;20449;-45
2022/09/29 03:05:58;;;;;;;32.50;18.10;;;6.60;99.90;;;;;;5090189;28;20431;-45
2022/09/29 03:08:23;;;;;;;33.43;17.57;;;6.60;99.90;;;;;;5090531;28;21069;-46
2022/09/29 03:10:49;;;;;;;30.83;16.30;;;6.70;99.90;;;;;;5092509;28;20234;-46
2022/09/29 03:13:14;;;;;;;29.97;16.03;;;6.70;99.90;;;;;;5096372;28;20200;-46
2022/09/29 03:15:40;;;;;;;30.87;16.67;;;6.70;99.90;;;;;;5090852;28;20893;-50
2022/09/29 03:18:06;;;;;;;31.17;17.40;;;6.70;99.90;;;;;;5090417;28;20197;-45
2022/09/29 03:20:31;;;;;;;32.17;17.60;;;6.80;99.90;;;;;;5089581;28;21100;-46
2022/09/29 03:22:58;;;;;;;33.07;17.47;;;6.70;99.90;;;;;;5091023;28;20442;-50
2022/09/29 03:25:24;;;;;;;32.17;17.33;;;6.70;99.90;;;;;;5089395;28;20219;-45
2022/09/29 03:27:50;;;;;;;31.40;16.73;;;6.70;99.90;;;;;;5091803;28;20779;-45
2022/09/29 03:30:17;;;;;;;30.73;18.30;;;6.60;99.90;;;;;;5087320;28;20407;-45
2022/09/29 03:32:43;;;;;;;29.87;17.77;;;6.60;99.90;;;;;;5089892;28;21235;-45
2022/09/29 03:35:09;;;;;;;31.47;17.83;;;6.60;99.90;;;;;;5079564;28;20451;-45
2022/09/29 03:37:35;;;;;;;36.20;17.93;;;6.60;99.90;;;;;;5078786;28;20431;-45
2022/09/29 03:40:01;;;;;;;34.03;18.13;;;6.60;99.90;;;;;;5087987;28;20224;-45
2022/09/29 03:42:27;;;;;;;30.83;17.83;;;6.60;99.90;;;;;;5089469;28;20197;-45
2022/09/29 03:44:53;;;;;;;30.77;17.60;;;6.50;99.90;;;;;;5090453;28;20446;-45
2022/09/29 03:47:19;;;;;;;36.07;18.30;;;6.60;99.90;;;;;;5089781;28;20547;-46
2022/09/29 03:49:44;;;;;;;33.77;18.50;;;6.50;99.90;;;;;;5090063;28;20439;-45
2022/09/29 03:52:10;;;;;;;33.27;18.40;;;6.60;99.90;;;;;;5088531;28;20290;-45
2022/09/29 03:54:36;;;;;;;36.37;19.03;;;6.60;99.90;;;;;;5089154;28;20200;-45
2022/09/29 03:57:02;;;;;;;31.93;18.80;;;6.60;99.90;;;;;;5088724;28;20446;-45
2022/09/29 03:59:27;;;;;;;30.17;17.80;;;6.50;99.90;;;;;;5087850;28;20228;-45
2022/09/29 04:01:53;;;;;;;30.10;17.67;;;6.50;99.90;;;;;;5089763;28;20205;-45
2022/09/29 04:04:18;;;;;;;37.20;17.63;;;6.50;99.90;;;;;;5088650;28;20228;-45
2022/09/29 04:06:44;;;;;;;36.50;19.90;;;6.60;99.90;;;;;;5090625;28;20240;-45
2022/09/29 04:09:10;;;;;;;38.00;19.00;;;6.60;99.90;;;;;;5090244;28;20197;-46
2022/09/29 04:11:35;;;;;;;39.17;19.57;;;6.60;99.90;;;;;;5089590;28;20284;-45
2022/09/29 04:14:01;;;;;;;38.17;19.80;;;6.60;99.90;;;;;;5089198;28;20201;-46
2022/09/29 04:16:26;;;;;;;34.13;17.57;;;6.60;99.90;;;;;;5093071;28;20223;-45
2022/09/29 04:18:52;;;;;;;33.90;19.20;;;6.60;99.90;;;;;;5093630;28;20216;-45
2022/09/29 04:21:18;;;;;;;37.20;20.27;;;6.70;99.90;;;;;;5094767;28;20200;-47
2022/09/29 04:23:44;;;;;;;35.40;20.00;;;6.70;99.90;;;;;;5093722;28;20589;-46
2022/09/29 04:26:09;;;;;;;36.33;19.17;;;6.70;99.90;;;;;;5093623;28;20560;-46
2022/09/29 04:28:36;;;;;;;38.80;19.80;;;6.70;99.90;;;;;;5092301;28;20193;-46
2022/09/29 04:31:02;;;;;;;43.10;20.03;;;6.70;99.90;;;;;;5094437;28;20310;-47
2022/09/29 04:33:28;;;;;;;39.30;20.23;;;6.70;99.90;;;;;;5091705;28;20457;-46
2022/09/29 04:35:55;;;;;;;38.27;21.63;;;6.80;99.90;;;;;;5094108;28;20477;-46
2022/09/29 04:38:21;;;;;;;38.00;19.70;;;6.80;99.90;;;;;;5093607;28;20453;-46
2022/09/29 04:40:47;;;;;;;36.13;21.17;;;6.80;99.90;;;;;;5093305;28;20468;-47
2022/09/29 04:43:13;;;;;;;39.73;20.13;;;6.80;99.90;;;;;;5092598;28;20450;-46
2022/09/29 04:45:39;;;;;;;39.87;22.40;;;6.80;99.90;;;;;;5092473;28;20447;-47
2022/09/29 04:48:05;;;;;;;36.90;21.30;;;6.80;99.90;;;;;;5093430;28;20201;-46
2022/09/29 04:50:30;;;;;;;37.10;20.87;;;6.80;99.90;;;;;;5093261;28;21030;-46
2022/09/29 04:52:56;;;;;;;36.63;20.73;;;6.80;99.90;;;;;;5093682;28;20212;-46
2022/09/29 04:55:21;;;;;;;36.00;19.77;;;6.70;99.90;;;;;;5092222;28;20219;-46
2022/09/29 04:57:47;;;;;;;41.73;21.37;;;6.70;99.90;;;;;;5093026;28;20254;-53
2022/09/29 05:00:14;;;;;;;37.67;21.67;;;6.70;99.90;;;;;;5092087;28;20304;-46
2022/09/29 05:02:40;;;;;;;40.17;20.40;;;6.70;99.90;;;;;;5092206;28;20769;-47
2022/09/29 05:05:07;;;;;;;40.27;21.87;;;6.80;99.90;;;;;;5091006;28;20452;-46
2022/09/29 05:07:36;;;;;;;37.43;21.80;;;6.80;99.90;;;;;;5091604;28;20430;-47
2022/09/29 05:10:03;;;;;;;37.80;21.17;;;6.80;99.90;;;;;;5092159;28;20453;-48
2022/09/29 05:12:29;;;;;;;36.90;21.70;;;6.80;99.90;;;;;;5091240;28;20446;-55
2022/09/29 05:14:54;;;;;;;38.47;22.10;;;6.80;99.90;;;;;;5093186;28;20900;-46
2022/09/29 05:17:20;;;;;;;36.63;21.47;;;6.80;99.90;;;;;;5093379;28;20169;-47
2022/09/29 05:19:45;;;;;;;38.43;21.57;;;6.80;99.90;;;;;;5092622;28;20947;-47
2022/09/29 05:22:11;;;;;;;43.27;22.73;;;6.80;99.90;;;;;;5092228;28;20560;-46
2022/09/29 05:24:37;;;;;;;38.73;20.37;;;6.80;99.90;;;;;;5091695;28;20197;-46
2022/09/29 05:27:02;;;;;;;43.60;21.90;;;6.90;99.90;;;;;;5090406;28;20687;-46
2022/09/29 05:29:28;;;;;;;38.77;21.63;;;6.90;99.90;;;;;;5090429;28;20185;-46
2022/09/29 05:31:53;;;;;;;44.83;23.97;;;6.80;99.90;;;;;;5092397;28;20216;-46
2022/09/29 05:34:19;;;;;;;42.30;24.10;;;6.80;99.90;;;;;;5091821;28;20743;-46
2022/09/29 05:36:45;;;;;;;39.47;22.63;;;6.90;99.90;;;;;;5091750;28;20271;-47
2022/09/29 05:39:11;;;;;;;41.07;22.60;;;6.90;99.90;;;;;;5092182;28;20225;-46
2022/09/29 05:41:37;;;;;;;42.23;23.47;;;6.90;99.90;;;;;;5092095;28;20253;-46
2022/09/29 05:44:03;;;;;;;44.47;23.30;;;6.90;99.90;;;;;;5093039;28;20431;-46
2022/09/29 05:46:28;;;;;;;41.63;22.70;;;7.00;99.90;;;;;;5092257;28;20193;-46
2022/09/29 05:48:54;;;;;;;41.83;23.13;;;7.00;99.90;;;;;;5091910;28;20197;-46
2022/09/29 05:51:22;;;;;;;43.30;25.00;;;7.10;99.90;;;;;;5090717;28;20698;-46
2022/09/29 05:53:48;;;;;;;45.60;23.33;;;7.10;99.90;;;;;;5092061;28;20208;-46
2022/09/29 05:56:20;;;;;;;43.20;23.43;;;7.10;99.90;;;;;;5092073;28;20478;-47
2022/09/29 05:58:46;;;;;;;39.10;23.30;;;7.10;99.90;;;;;;5091631;28;20478;-46
2022/09/29 06:01:15;;;;;;;45.23;23.57;;;7.20;99.90;;;;;;5088917;28;20442;-46
2022/09/29 06:03:41;;;;;;;38.13;21.83;;;7.20;99.90;;;;;;5091750;28;20205;-46
2022/09/29 06:06:16;;;;;;;46.23;22.40;;;7.20;99.90;;;;;;5086422;28;20914;-46
2022/09/29 06:08:43;;;;;;;39.27;22.87;;;7.30;99.90;;;;;;5088795;28;20438;-46
2022/09/29 06:11:11;;;;;;;38.20;22.97;;;7.40;99.90;;;;;;5090542;28;20481;-46
2022/09/29 06:13:41;;;;;;;39.20;22.73;;;7.40;99.90;;;;;;5090781;28;20446;-46
2022/09/29 06:16:07;;;;;;;38.60;23.50;;;7.40;99.90;;;;;;5087776;28;20997;-46
2022/09/29 06:18:33;;;;;;;44.03;23.70;;;7.50;99.90;;;;;;5091239;28;20462;-46
2022/09/29 06:21:01;;;;;;;36.60;22.53;;;7.50;99.90;;;;;;5089581;28;20435;-46
2022/09/29 06:23:26;;;;;;;39.67;22.03;;;7.50;99.90;;;;;;5091199;28;20439;-46
2022/09/29 06:26:03;;;;;;;39.00;22.23;;;7.60;99.90;;;;;;5091207;28;20513;-46
2022/09/29 06:28:30;;;;;;;40.43;21.70;;;7.70;99.90;;;;;;5088917;28;20681;-46
2022/09/29 06:31:04;;;;;;;36.47;22.57;;;7.70;99.90;;;;;;5087332;28;20442;-46
2022/09/29 06:33:31;;;;;;;39.47;21.97;;;7.80;99.90;;;;;;5089948;28;20431;-46
2022/09/29 06:38:43;;;;;;;38.57;21.03;;;7.80;99.90;;;;;;5088814;28;20921;-46
2022/09/29 06:41:09;;;;;;;34.27;21.43;;;7.80;99.90;;;;;;5090034;28;20427;-46
2022/09/29 06:43:34;;;;;;;34.40;22.10;;;7.80;99.90;;;;;;5089285;28;20190;-46
2022/09/29 06:46:00;;;;;;;34.73;22.33;;;7.90;99.90;;;;;;5086957;28;20533;-46
2022/09/29 06:48:28;;;;;;;36.47;22.10;;;7.90;99.90;;;;;;5090420;28;20280;-46
2022/09/29 06:50:54;;;;;;;33.70;21.60;;;8.00;99.90;;;;;;5089818;28;20290;-45
2022/09/29 06:53:20;;;;;;;32.27;21.23;;;8.10;99.90;;;;;;5084256;28;20779;-46
2022/09/29 06:55:55;;;;;;;36.07;21.43;;;8.10;99.90;;;;;;5079183;28;20445;-46
2022/09/29 06:58:22;;;;;;;34.00;21.80;;;8.20;99.90;;;;;;5078852;28;20311;-45
2022/09/29 07:00:47;;;;;;;36.00;20.87;;;8.30;99.90;;;;;;5085936;28;20427;-46
2022/09/29 07:03:13;;;;;;;32.67;20.43;;;8.40;95.20;;;;;;5085269;28;20423;-47
2022/09/29 07:05:39;;;;;;;30.90;19.30;;;8.30;1.00;;;;;;5086941;28;20185;-45
2022/09/29 07:08:05;;;;;;;30.90;20.10;;;8.30;1.00;;;;;;5080857;28;20192;-45
2022/09/29 07:10:30;;;;;;;35.70;20.67;;;8.20;1.00;;;;;;5089572;28;20789;-46
2022/09/29 07:12:56;;;;;;;32.80;19.23;;;8.20;1.00;;;;;;5091234;28;20192;-45
2022/09/29 07:15:30;;;;;;;31.90;19.40;;;8.20;1.00;;;;;;5091210;28;20189;-45
2022/09/29 07:17:56;;;;;;;30.77;19.20;;;8.20;1.00;;;;;;5090633;28;20254;-45
2022/09/29 07:20:22;;;;;;;33.33;20.33;;;8.30;99.90;;;;;;5091462;28;20459;-45
2022/09/29 07:22:47;;;;;;;33.50;19.67;;;8.30;99.90;;;;;;5090682;28;20442;-45
2022/09/29 07:25:13;;;;;;;32.90;20.67;;;8.30;99.90;;;;;;5092300;28;20177;-47
2022/09/29 07:27:40;;;;;;;28.50;18.57;;;8.30;99.90;;;;;;5087141;28;20215;-47
2022/09/29 07:30:06;;;;;;;34.70;21.33;;;8.40;99.90;;;;;;5090821;28;20196;-47
2022/09/29 07:32:32;;;;;;;33.67;20.80;;;8.50;1.00;;;;;;5089797;28;20774;-47
2022/09/29 07:34:58;;;;;;;31.63;20.50;;;8.60;99.90;;;;;;5090642;28;20441;-47
2022/09/29 07:37:24;;;;;;;37.80;20.60;;;8.60;99.90;;;;;;5090357;28;20196;-48
2022/09/29 07:39:53;;;;;;;32.70;21.03;;;8.70;99.90;;;;;;5090914;28;20461;-49
2022/09/29 07:42:20;;;;;;;29.70;20.37;;;8.80;99.90;;;;;;5088286;28;20476;-47
2022/09/29 07:44:46;;;;;;;34.83;21.63;;;8.90;99.90;;;;;;5071056;28;20428;-48
2022/09/29 07:47:12;;;;;;;30.10;19.90;;;9.10;99.90;;;;;;5080296;28;21153;-48
2022/09/29 07:49:38;;;;;;;33.07;21.30;;;9.10;99.90;;;;;;5100795;28;20263;-48
2022/09/29 07:52:04;;;;;;;32.47;22.00;;;9.10;1.00;;;;;;5101916;28;20624;-48
2022/09/29 07:54:30;;;;;;;38.27;22.30;;;9.10;1.00;;;;;;5090330;28;20482;-48
2022/09/29 07:56:56;;;;;;;32.93;21.90;;;9.20;1.00;;;;;;5090084;28;20654;-48
2022/09/29 07:59:21;;;;;;;34.40;22.20;;;9.20;25.20;;;;;;5089925;28;21010;-49
2022/09/29 08:01:47;;;;;;;32.50;20.80;;;9.40;89.90;;;;;;5091007;28;20399;-47
2022/09/29 08:04:13;;;;;;;32.60;20.60;;;9.50;84.20;;;;;;5090416;28;20212;-48
2022/09/29 08:06:39;;;;;;;26.20;19.60;;;9.60;1.00;;;;;;5090814;28;20173;-48
2022/09/29 08:09:05;;;;;;;31.30;20.93;;;9.60;1.00;;;;;;5090517;28;20446;-48
2022/09/29 08:11:32;;;;;;;48.03;30.33;;;9.70;1.00;;;;;;5086829;28;20848;-48
2022/09/29 08:13:59;;;;;;;46.77;30.97;;;9.80;1.00;;;;;;5090089;28;20279;-48
2022/09/29 08:16:24;;;;;;;44.23;25.83;;;9.90;99.90;;;;;;5090610;28;20862;-48
2022/09/29 08:18:50;;;;;;;55.20;32.50;;;10.00;99.90;;;;;;5090505;28;20471;-48
2022/09/29 08:21:16;;;;;;;26.13;18.73;;;10.00;1.00;;;;;;5089601;28;20228;-48
2022/09/29 08:23:42;;;;;;;26.80;18.57;;;10.00;1.00;;;;;;5090177;28;20189;-48
2022/09/29 08:26:16;;;;;;;22.90;17.00;;;10.00;99.90;;;;;;5071564;28;20437;-48
2022/09/29 08:28:43;;;;;;;26.90;18.20;;;10.10;99.90;;;;;;5088960;28;20411;-48
2022/09/29 08:31:24;;;;;;;25.43;18.50;;;10.10;99.90;;;;;;5087407;28;20450;-48
2022/09/29 08:33:50;;;;;;;24.20;17.03;;;10.20;1.00;;;;;;5081235;28;20428;-48
2022/09/29 08:36:17;;;;;;;26.83;17.50;;;10.30;99.90;;;;;;5075730;28;20458;-48
2022/09/29 08:38:48;;;;;;;25.27;16.77;;;10.40;99.90;;;;;;5075732;28;20475;-48
2022/09/29 08:41:22;;;;;;;23.80;16.80;;;10.50;33.50;;;;;;5076897;28;20899;-48
2022/09/29 08:43:51;;;;;;;22.83;16.80;;;10.70;99.90;;;;;;5073630;28;20419;-48
2022/09/29 08:46:29;;;;;;;21.60;15.00;;;10.80;99.90;;;;;;5081423;28;20431;-48
2022/09/29 08:48:58;;;;;;;23.63;16.23;;;11.10;99.90;;;;;;5080041;28;20418;-48
2022/09/29 08:51:35;;;;;;;24.67;18.43;;;11.20;99.90;;;;;;5083923;28;20554;-48
2022/09/29 08:54:14;;;;;;;23.57;15.50;;;11.40;99.90;;;;;;5080915;28;20929;-48
2022/09/29 08:56:39;;;;;;;24.13;17.40;;;11.40;99.90;;;;;;5078854;28;20434;-49
2022/09/29 08:59:08;;;;;;;19.97;15.87;;;11.50;1.00;;;;;;5079142;28;20542;-48
2022/09/29 09:01:59;;;;;;;24.77;17.30;;;11.60;1.00;;;;;;5073018;28;21048;-48
2022/09/29 09:04:57;;;;;;;25.17;17.20;;;11.80;1.00;;;;;;5088908;28;20412;-48
2022/09/29 09:07:56;;;;;;;24.80;16.60;;;11.80;99.90;;;;;;5090364;28;20447;-48
2022/09/29 09:10:46;;;;;;;22.80;16.80;;;11.80;1.00;;;;;;5092765;28;20430;-48
2022/09/29 09:13:31;;;;;;;21.53;15.83;;;11.90;1.00;;;;;;5091870;28;20446;-48
2022/09/29 09:16:12;;;;;;;21.67;16.50;;;12.00;1.00;;;;;;5093313;28;20519;-48
2022/09/29 09:19:01;;;;;;;19.27;14.60;;;12.10;99.90;;;;;;5084807;28;20521;-49
2022/09/29 09:22:11;;;;;;;20.17;15.27;;;12.10;1.00;;;;;;5076585;28;20428;-49
2022/09/29 09:24:45;;;;;;;20.67;15.67;;;12.10;1.00;;;;;;5088328;28;21095;-48
2022/09/29 09:27:15;;;;;;;21.30;15.33;;;12.00;1.00;;;;;;5092731;28;20892;-48
2022/09/29 09:29:46;;;;;;;23.27;16.47;;;12.00;42.20;;;;;;5091380;28;20488;-48
2022/09/29 09:32:24;;;;;;;18.37;14.00;;;12.00;99.90;;;;;;5092648;28;20782;-48
2022/09/29 09:34:52;;;;;;;24.20;16.23;;;12.00;1.00;;;;;;5093532;28;20778;-48
2022/09/29 09:37:27;;;;;;;19.07;13.90;;;12.10;34.40;;;;;;5093281;28;20473;-48
2022/09/29 09:40:14;;;;;;;20.20;14.83;;;12.20;99.90;;;;;;5093174;28;20537;-48
2022/09/29 09:42:44;;;;;;;20.30;14.00;;;12.10;1.00;;;;;;5093253;28;20457;-48
2022/09/29 09:45:15;;;;;;;22.60;15.23;;;12.20;99.90;;;;;;5093741;28;20403;-49
2022/09/29 09:48:05;;;;;;;19.27;15.23;;;12.20;99.90;;;;;;5091456;28;20477;-48
2022/09/29 09:50:32;;;;;;;20.17;14.00;;;12.40;99.90;;;;;;5091172;28;20482;-48
2022/09/29 09:53:08;;;;;;;22.80;16.20;;;12.50;1.00;;;;;;5092298;28;20482;-49
2022/09/29 09:55:35;;;;;;;20.67;15.83;;;12.80;99.90;;;;;;5092342;28;20542;-48
2022/09/29 09:58:06;;;;;;;21.80;15.50;;;13.00;99.90;;;;;;5091944;28;20430;-48
2022/09/29 10:00:38;;;;;;;17.03;14.37;;;13.10;99.90;;;;;;5091904;28;20473;-48
2022/09/29 10:03:07;;;;;;;18.60;14.10;;;13.30;1.00;;;;;;5092103;28;20441;-48
2022/09/29 10:05:44;;;;;;;18.00;14.30;;;13.40;99.90;;;;;;5092283;28;20960;-48
2022/09/29 10:08:15;;;;;;;17.77;14.60;;;13.60;1.00;;;;;;5090127;28;20442;-48
2022/09/29 10:10:42;;;;;;;19.63;14.50;;;13.70;99.90;;;;;;5092627;28;20408;-49
2022/09/29 10:13:13;;;;;;;17.23;13.70;;;13.70;99.90;;;;;;5091197;28;20763;-48
2022/09/29 10:15:51;;;;;;;19.60;13.40;;;13.80;1.00;;;;;;5092198;28;20404;-48
2022/09/29 10:18:27;;;;;;;19.63;14.00;;;14.00;1.00;;;;;;5072186;28;20404;-48
2022/09/29 10:20:53;;;;;;;16.73;13.47;;;14.20;1.00;;;;;;5072867;28;20463;-49
2022/09/29 10:23:33;;;;;;;19.40;13.20;;;14.00;1.00;;;;;;5072403;28;20416;-49
2022/09/29 10:26:16;;;;;;;18.90;14.27;;;13.90;1.00;;;;;;5084491;28;20295;-49
2022/09/29 10:28:51;;;;;;;17.60;13.33;;;13.70;1.00;;;;;;5092312;28;20403;-49
2022/09/29 10:31:20;;;;;;;17.23;13.03;;;13.30;1.00;;;;;;5092427;28;20399;-49
2022/09/29 10:34:09;;;;;;;18.47;13.30;;;13.20;1.00;;;;;;5091828;28;20472;-47
2022/09/29 10:36:52;;;;;;;18.83;13.17;;;13.00;1.00;;;;;;5091889;28;20435;-47
2022/09/29 10:39:40;;;;;;;19.90;13.20;;;12.80;1.00;;;;;;5092117;28;20450;-47
2022/09/29 10:42:16;;;;;;;18.80;13.40;;;12.80;1.00;;;;;;5073639;28;20480;-46
2022/09/29 10:44:48;;;;;;;18.03;12.73;;;12.90;1.00;;;;;;5092185;28;20422;-47
2022/09/29 10:47:14;;;;;;;17.40;12.30;;;12.80;1.00;;;;;;5092284;28;20516;-47
2022/09/29 10:49:40;;;;;;;15.20;11.50;;;12.80;1.00;;;;;;5092119;28;20407;-47
2022/09/29 10:52:24;;;;;;;17.67;12.23;;;12.80;1.00;;;;;;5091488;28;20850;-47
2022/09/29 10:54:58;;;;;;;18.93;11.07;;;12.80;1.00;;;;;;5091654;28;20215;-47
2022/09/29 10:57:29;;;;;;;14.80;11.67;;;12.70;1.00;;;;;;5091342;28;20442;-47
2022/09/29 10:59:57;;;;;;;15.63;11.80;;;12.60;1.00;;;;;;5091275;28;20496;-47
2022/09/29 11:02:34;;;;;;;14.47;11.77;;;12.50;1.00;;;;;;5091969;28;20406;-46
2022/09/29 11:05:04;;;;;;;16.17;11.33;;;12.50;1.00;;;;;;5091637;28;20406;-47
2022/09/29 11:07:33;;;;;;;16.23;11.97;;;12.50;1.00;;;;;;5091865;28;20885;-47
2022/09/29 11:09:58;;;;;;;17.20;11.47;;;12.50;1.00;;;;;;5091608;28;20423;-46
2022/09/29 11:12:33;;;;;;;16.63;11.30;;;12.60;1.00;;;;;;5091206;28;21093;-46
2022/09/29 11:15:01;;;;;;;15.10;11.87;;;12.50;1.00;;;;;;5091498;28;20172;-47
2022/09/29 11:17:53;;;;;;;15.80;11.57;;;12.50;1.00;;;;;;5091474;28;20406;-46
2022/09/29 11:20:22;;;;;;;17.00;11.40;;;12.50;1.00;;;;;;5086710;28;20493;-46
2022/09/29 11:23:03;;;;;;;17.57;11.63;;;12.50;1.00;;;;;;5091959;28;20504;-47
2022/09/29 11:25:47;;;;;;;17.90;12.17;;;12.50;1.00;;;;;;5090218;28;20418;-47
2022/09/29 11:28:31;;;;;;;16.33;11.27;;;12.50;1.00;;;;;;5090710;28;20429;-47
2022/09/29 11:31:15;;;;;;;22.50;12.07;;;12.60;1.00;;;;;;5090903;28;20400;-46
2022/09/29 11:34:25;;;;;;;14.87;10.90;;;12.60;1.00;;;;;;5091052;28;20501;-49
2022/09/29 11:36:55;;;;;;;18.63;10.33;;;12.60;1.00;;;;;;5090658;28;20415;-46
2022/09/29 11:39:44;;;;;;;16.53;10.67;;;12.70;1.00;;;;;;5090991;28;20466;-48
2022/09/29 11:42:25;;;;;;;15.90;11.73;;;12.80;1.00;;;;;;5091222;28;20402;-47
2022/09/29 11:44:57;;;;;;;19.00;12.60;;;12.80;1.00;;;;;;5091389;28;20499;-48
2022/09/29 11:47:36;;;;;;;16.53;11.70;;;12.80;1.00;;;;;;5091258;28;20416;-47
2022/09/29 11:50:13;;;;;;;20.77;11.50;;;12.70;1.00;;;;;;5087105;28;20438;-47
2022/09/29 11:53:08;;;;;;;17.57;12.00;;;12.70;1.00;;;;;;5090295;28;20466;-48
2022/09/29 11:56:07;;;;;;;17.20;11.90;;;12.60;1.00;;;;;;5089501;28;20423;-47
2022/09/29 11:58:40;;;;;;;20.43;12.27;;;12.60;1.00;;;;;;5071010;28;20435;-48
2022/09/29 12:01:32;;;;;;;17.80;12.37;;;12.50;1.00;;;;;;5090407;28;21200;-48
2022/09/29 12:04:19;;;;;;;17.47;11.50;;;12.50;1.00;;;;;;5086596;28;20441;-48
2022/09/29 12:06:53;;;;;;;17.67;12.17;;;12.60;1.00;;;;;;5086587;28;20526;-48
2022/09/29 12:09:37;;;;;;;19.63;11.57;;;12.70;1.00;;;;;;5086969;28;20433;-48
2022/09/29 12:12:21;;;;;;;18.90;11.70;;;12.60;1.00;;;;;;5090096;28;20462;-48
2022/09/29 12:15:15;;;;;;;15.97;11.43;;;12.50;1.00;;;;;;5088218;28;20443;-48
2022/09/29 12:17:52;;;;;;;19.37;10.97;;;12.40;1.00;;;;;;5079374;28;20442;-48
2022/09/29 12:20:23;;;;;;;11.70;9.60;;;12.30;1.00;;;;;;5085961;28;20454;-47
2022/09/29 12:22:51;;;;;;;12.17;9.87;;;12.10;2.00;;;;;;5091633;28;20427;-47
2022/09/29 12:25:29;;;;;;;11.83;9.10;;;12.00;57.80;;;;;;5089352;28;20484;-51
2022/09/29 12:28:17;;;;;;;13.90;9.30;;;11.90;99.90;;;;;;5088910;28;20443;-48
2022/09/29 12:30:55;;;;;;;12.23;9.30;;;12.00;99.90;;;;;;5089752;28;20500;-48
2022/09/29 12:33:38;;;;;;;12.13;8.20;;;12.00;99.90;;;;;;5090678;28;20501;-48
2022/09/29 12:39:20;;;;;;;11.80;7.73;;;12.10;99.90;;;;;;5094189;28;20563;-48
2022/09/29 12:42:12;;;;;;;8.60;7.17;;;12.30;99.90;;;;;;5092508;28;21252;-45
2022/09/29 12:44:49;;;;;;;9.00;6.40;;;12.40;1.00;;;;;;5059981;28;20433;-45
2022/09/29 12:47:52;;;;;;;9.93;8.00;;;12.50;1.00;;;;;;5089838;28;20417;-45
2022/09/29 12:50:25;;;;;;;10.20;7.70;;;12.50;1.00;;;;;;5091617;28;20744;-45
2022/09/29 12:53:02;;;;;;;8.93;7.93;;;12.60;1.00;;;;;;5094737;28;20427;-45
2022/09/29 12:56:04;;;;;;;10.00;8.10;;;12.70;1.00;;;;;;5094383;28;20423;-46
2022/09/29 12:59:12;;;;;;;8.90;8.00;;;12.80;1.00;;;;;;5089520;28;20454;-45
2022/09/29 13:01:38;;;;;;;8.77;7.87;;;12.90;1.00;;;;;;5079079;28;20426;-46
2022/09/29 13:04:39;;;;;;;9.53;7.80;;;12.90;1.00;;;;;;5092193;28;20437;-45
2022/09/29 13:07:26;;;;;;;10.53;9.43;;;12.80;1.00;;;;;;5093057;28;20433;-45